sensor_id;sensor_type;location;lat;lon;timestamp;temperature;humidity
6740;DHT22;3407;49.882;10.920;2023-02-13T00:00:33;2.80;37.10
6740;DHT22;3407;49.882;10.920;2023-02-13T00:05:29;2.60;40.70
6740;DHT22;3407;49.882;10.920;2023-02-13T00:10:25;2.50;42.70
6740;DHT22;3407;49.882;10.920;2023-02-13T00:15:20;2.30;42.20
6740;DHT22;3407;49.882;10.920;2023-02-13T00:20:16;2.20;43.40
6740;DHT22;3407;49.882;10.920;2023-02-13T00:25:12;2.00;43.10
6740;DHT22;3407;49.882;10.920;2023-02-13T00:30:08;1.90;44.70
6740;DHT22;3407;49.882;10.920;2023-02-13T00:35:03;1.80;45.20
6740;DHT22;3407;49.882;10.920;2023-02-13T00:39:59;1.70;47.40
6740;DHT22;3407;49.882;10.920;2023-02-13T00:44:55;1.60;47.70
6740;DHT22;3407;49.882;10.920;2023-02-13T00:49:50;1.50;46.00
6740;DHT22;3407;49.882;10.920;2023-02-13T00:54:46;1.40;46.20
6740;DHT22;3407;49.882;10.920;2023-02-13T00:59:41;1.30;45.70
6740;DHT22;3407;49.882;10.920;2023-02-13T01:04:37;1.20;47.70
6740;DHT22;3407;49.882;10.920;2023-02-13T01:09:33;1.10;50.50
6740;DHT22;3407;49.882;10.920;2023-02-13T01:14:28;1.10;51.60
6740;DHT22;3407;49.882;10.920;2023-02-13T01:19:24;1.00;52.30
6740;DHT22;3407;49.882;10.920;2023-02-13T01:24:19;0.90;50.50
6740;DHT22;3407;49.882;10.920;2023-02-13T01:29:15;0.80;50.10
6740;DHT22;3407;49.882;10.920;2023-02-13T01:34:10;0.80;50.70
6740;DHT22;3407;49.882;10.920;2023-02-13T01:39:06;0.60;48.00
6740;DHT22;3407;49.882;10.920;2023-02-13T01:44:01;0.60;49.70
6740;DHT22;3407;49.882;10.920;2023-02-13T01:49:15;0.60;51.60
6740;DHT22;3407;49.882;10.920;2023-02-13T01:54:16;0.50;49.70
6740;DHT22;3407;49.882;10.920;2023-02-13T01:59:18;0.40;49.40
6740;DHT22;3407;49.882;10.920;2023-02-13T02:04:22;0.30;51.80
6740;DHT22;3407;49.882;10.920;2023-02-13T02:09:22;0.30;53.00
6740;DHT22;3407;49.882;10.920;2023-02-13T02:14:18;0.30;52.60
6740;DHT22;3407;49.882;10.920;2023-02-13T02:29:43;0.10;54.90
6740;DHT22;3407;49.882;10.920;2023-02-13T02:35:08;0.10;56.60
6740;DHT22;3407;49.882;10.920;2023-02-13T02:40:33;0.00;55.70
6740;DHT22;3407;49.882;10.920;2023-02-13T02:45:46;-0.10;55.10
6740;DHT22;3407;49.882;10.920;2023-02-13T02:50:50;-0.10;54.00
6740;DHT22;3407;49.882;10.920;2023-02-13T02:55:55;-0.20;54.00
6740;DHT22;3407;49.882;10.920;2023-02-13T03:00:54;-0.20;55.60
6740;DHT22;3407;49.882;10.920;2023-02-13T03:06:22;-0.20;59.00
6740;DHT22;3407;49.882;10.920;2023-02-13T03:11:19;-0.10;59.70
6740;DHT22;3407;49.882;10.920;2023-02-13T03:16:33;0.10;60.70
6740;DHT22;3407;49.882;10.920;2023-02-13T03:21:58;0.20;60.30
6740;DHT22;3407;49.882;10.920;2023-02-13T03:27:33;0.20;59.00
6740;DHT22;3407;49.882;10.920;2023-02-13T03:33:08;0.30;58.60
6740;DHT22;3407;49.882;10.920;2023-02-13T03:38:38;0.30;59.10
6740;DHT22;3407;49.882;10.920;2023-02-13T03:43:50;0.40;63.00
6740;DHT22;3407;49.882;10.920;2023-02-13T03:48:47;0.50;67.50
6740;DHT22;3407;49.882;10.920;2023-02-13T03:54:06;0.60;70.20
6740;DHT22;3407;49.882;10.920;2023-02-13T03:59:03;0.60;71.10
6740;DHT22;3407;49.882;10.920;2023-02-13T04:04:20;0.70;72.20
6740;DHT22;3407;49.882;10.920;2023-02-13T04:09:17;0.70;73.60
6740;DHT22;3407;49.882;10.920;2023-02-13T04:14:21;0.70;75.60
6740;DHT22;3407;49.882;10.920;2023-02-13T04:19:19;0.80;76.20
6740;DHT22;3407;49.882;10.920;2023-02-13T04:24:15;0.80;78.30
6740;DHT22;3407;49.882;10.920;2023-02-13T04:29:10;0.70;79.20
6740;DHT22;3407;49.882;10.920;2023-02-13T04:34:06;0.70;81.70
6740;DHT22;3407;49.882;10.920;2023-02-13T04:39:01;0.80;84.40
6740;DHT22;3407;49.882;10.920;2023-02-13T04:43:57;0.80;85.90
6740;DHT22;3407;49.882;10.920;2023-02-13T04:48:52;0.80;86.90
6740;DHT22;3407;49.882;10.920;2023-02-13T04:53:48;0.80;89.00
6740;DHT22;3407;49.882;10.920;2023-02-13T04:58:43;0.90;90.40
6740;DHT22;3407;49.882;10.920;2023-02-13T05:03:39;0.90;90.40
6740;DHT22;3407;49.882;10.920;2023-02-13T05:08:35;0.90;90.90
6740;DHT22;3407;49.882;10.920;2023-02-13T05:13:30;0.90;91.70
6740;DHT22;3407;49.882;10.920;2023-02-13T05:18:26;1.00;92.70
6740;DHT22;3407;49.882;10.920;2023-02-13T05:23:21;1.10;93.40
6740;DHT22;3407;49.882;10.920;2023-02-13T05:28:17;1.00;92.80
6740;DHT22;3407;49.882;10.920;2023-02-13T05:33:31;1.00;92.10
6740;DHT22;3407;49.882;10.920;2023-02-13T05:38:26;1.00;91.90
6740;DHT22;3407;49.882;10.920;2023-02-13T05:43:22;0.90;91.50
6740;DHT22;3407;49.882;10.920;2023-02-13T05:48:17;1.00;91.70
6740;DHT22;3407;49.882;10.920;2023-02-13T05:53:13;0.90;91.80
6740;DHT22;3407;49.882;10.920;2023-02-13T05:58:08;1.00;92.20
6740;DHT22;3407;49.882;10.920;2023-02-13T06:03:06;1.10;92.60
6740;DHT22;3407;49.882;10.920;2023-02-13T06:08:01;1.20;93.20
6740;DHT22;3407;49.882;10.920;2023-02-13T06:12:57;1.30;93.20
6740;DHT22;3407;49.882;10.920;2023-02-13T06:17:52;1.40;93.00
6740;DHT22;3407;49.882;10.920;2023-02-13T06:22:49;1.40;92.90
6740;DHT22;3407;49.882;10.920;2023-02-13T06:27:45;1.50;93.10
6740;DHT22;3407;49.882;10.920;2023-02-13T06:32:40;1.50;93.50
6740;DHT22;3407;49.882;10.920;2023-02-13T06:37:36;1.60;93.60
6740;DHT22;3407;49.882;10.920;2023-02-13T06:42:31;1.60;93.30
6740;DHT22;3407;49.882;10.920;2023-02-13T06:47:27;1.70;93.60
6740;DHT22;3407;49.882;10.920;2023-02-13T06:52:22;1.70;93.50
6740;DHT22;3407;49.882;10.920;2023-02-13T06:57:18;1.60;91.30
6740;DHT22;3407;49.882;10.920;2023-02-13T07:02:13;1.60;91.30
6740;DHT22;3407;49.882;10.920;2023-02-13T07:07:09;1.60;91.20
6740;DHT22;3407;49.882;10.920;2023-02-13T07:12:05;1.50;90.10
6740;DHT22;3407;49.882;10.920;2023-02-13T07:17:00;1.50;89.80
6740;DHT22;3407;49.882;10.920;2023-02-13T07:21:56;1.60;90.80
6740;DHT22;3407;49.882;10.920;2023-02-13T07:26:51;1.70;90.60
6740;DHT22;3407;49.882;10.920;2023-02-13T07:31:47;1.70;89.50
6740;DHT22;3407;49.882;10.920;2023-02-13T07:36:42;1.70;85.50
6740;DHT22;3407;49.882;10.920;2023-02-13T07:41:38;1.60;76.90
6740;DHT22;3407;49.882;10.920;2023-02-13T07:46:33;1.60;77.90
6740;DHT22;3407;49.882;10.920;2023-02-13T07:51:29;1.70;80.10
6740;DHT22;3407;49.882;10.920;2023-02-13T07:56:25;1.80;77.30
6740;DHT22;3407;49.882;10.920;2023-02-13T08:01:20;1.80;74.60
6740;DHT22;3407;49.882;10.920;2023-02-13T08:06:17;2.00;78.50
6740;DHT22;3407;49.882;10.920;2023-02-13T08:11:30;2.20;79.80
6740;DHT22;3407;49.882;10.920;2023-02-13T08:16:45;2.30;77.70
6740;DHT22;3407;49.882;10.920;2023-02-13T08:21:41;2.50;73.10
6740;DHT22;3407;49.882;10.920;2023-02-13T08:26:36;2.70;68.10
6740;DHT22;3407;49.882;10.920;2023-02-13T08:31:32;2.80;59.20
6740;DHT22;3407;49.882;10.920;2023-02-13T08:36:28;3.00;61.00
6740;DHT22;3407;49.882;10.920;2023-02-13T08:41:23;2.90;38.20
6740;DHT22;3407;49.882;10.920;2023-02-13T08:46:19;2.80;38.10
6740;DHT22;3407;49.882;10.920;2023-02-13T08:51:14;2.90;48.50
6740;DHT22;3407;49.882;10.920;2023-02-13T08:56:10;3.20;52.70
6740;DHT22;3407;49.882;10.920;2023-02-13T09:01:07;3.50;48.70
6740;DHT22;3407;49.882;10.920;2023-02-13T09:06:03;3.60;34.10
6740;DHT22;3407;49.882;10.920;2023-02-13T09:11:00;3.70;25.10
6740;DHT22;3407;49.882;10.920;2023-02-13T09:16:00;3.80;25.60
6740;DHT22;3407;49.882;10.920;2023-02-13T09:21:01;3.90;10.60
6740;DHT22;3407;49.882;10.920;2023-02-13T09:26:01;3.70;1.00
6740;DHT22;3407;49.882;10.920;2023-02-13T09:30:57;3.60;1.00
6740;DHT22;3407;49.882;10.920;2023-02-13T09:35:52;3.70;1.00
6740;DHT22;3407;49.882;10.920;2023-02-13T09:40:57;3.60;1.00
6740;DHT22;3407;49.882;10.920;2023-02-13T09:45:58;3.70;1.00
6740;DHT22;3407;49.882;10.920;2023-02-13T09:50:56;3.70;1.00
6740;DHT22;3407;49.882;10.920;2023-02-13T09:56:09;3.80;1.00
6740;DHT22;3407;49.882;10.920;2023-02-13T10:01:25;4.00;1.00
6740;DHT22;3407;49.882;10.920;2023-02-13T10:06:31;3.80;1.00
6740;DHT22;3407;49.882;10.920;2023-02-13T10:11:56;4.00;1.00
6740;DHT22;3407;49.882;10.920;2023-02-13T10:17:10;4.30;1.00
6740;DHT22;3407;49.882;10.920;2023-02-13T10:22:14;4.40;1.00
6740;DHT22;3407;49.882;10.920;2023-02-13T10:27:35;4.20;1.00
6740;DHT22;3407;49.882;10.920;2023-02-13T10:37:31;4.60;1.00
6740;DHT22;3407;49.882;10.920;2023-02-13T10:53:33;5.10;1.00
6740;DHT22;3407;49.882;10.920;2023-02-13T10:58:42;5.20;1.00
6740;DHT22;3407;49.882;10.920;2023-02-13T11:03:39;5.50;1.00
6740;DHT22;3407;49.882;10.920;2023-02-13T11:08:39;5.60;1.00
6740;DHT22;3407;49.882;10.920;2023-02-13T11:13:37;5.80;1.00
6740;DHT22;3407;49.882;10.920;2023-02-13T11:18:37;6.00;1.00
6740;DHT22;3407;49.882;10.920;2023-02-13T11:23:36;6.20;1.00
6740;DHT22;3407;49.882;10.920;2023-02-13T11:28:43;6.30;1.00
6740;DHT22;3407;49.882;10.920;2023-02-13T11:33:40;6.40;99.90
6740;DHT22;3407;49.882;10.920;2023-02-13T11:38:36;6.60;1.00
6740;DHT22;3407;49.882;10.920;2023-02-13T11:43:41;6.80;99.90
6740;DHT22;3407;49.882;10.920;2023-02-13T11:48:38;6.90;99.90
6740;DHT22;3407;49.882;10.920;2023-02-13T11:53:37;7.10;99.90
6740;DHT22;3407;49.882;10.920;2023-02-13T11:58:34;7.20;1.00
6740;DHT22;3407;49.882;10.920;2023-02-13T12:03:30;7.30;1.00
6740;DHT22;3407;49.882;10.920;2023-02-13T12:08:28;7.30;1.00
6740;DHT22;3407;49.882;10.920;2023-02-13T12:13:30;6.90;99.90
6740;DHT22;3407;49.882;10.920;2023-02-13T12:18:32;6.90;1.00
6740;DHT22;3407;49.882;10.920;2023-02-13T12:29:11;6.70;1.00
6740;DHT22;3407;49.882;10.920;2023-02-13T12:34:16;6.40;1.00
6740;DHT22;3407;49.882;10.920;2023-02-13T12:39:32;7.10;99.90
6740;DHT22;3407;49.882;10.920;2023-02-13T12:45:01;7.40;99.90
6740;DHT22;3407;49.882;10.920;2023-02-13T12:50:25;8.10;99.90
6740;DHT22;3407;49.882;10.920;2023-02-13T13:00:56;10.40;1.00
6740;DHT22;3407;49.882;10.920;2023-02-13T13:16:50;10.40;1.00
6740;DHT22;3407;49.882;10.920;2023-02-13T13:26:54;10.70;1.00
6740;DHT22;3407;49.882;10.920;2023-02-13T13:32:01;11.00;1.00
6740;DHT22;3407;49.882;10.920;2023-02-13T13:42:33;12.60;1.00
6740;DHT22;3407;49.882;10.920;2023-02-13T13:48:05;13.20;1.00
6740;DHT22;3407;49.882;10.920;2023-02-13T13:58:21;13.10;1.00
6740;DHT22;3407;49.882;10.920;2023-02-13T14:03:23;12.70;99.90
6740;DHT22;3407;49.882;10.920;2023-02-13T14:13:38;13.10;99.90
6740;DHT22;3407;49.882;10.920;2023-02-13T14:18:35;13.00;99.90
6740;DHT22;3407;49.882;10.920;2023-02-13T14:33:45;14.10;99.90
6740;DHT22;3407;49.882;10.920;2023-02-13T14:38:41;13.90;99.90
6740;DHT22;3407;49.882;10.920;2023-02-13T14:43:49;14.40;99.90
6740;DHT22;3407;49.882;10.920;2023-02-13T14:54:26;14.90;99.90
6740;DHT22;3407;49.882;10.920;2023-02-13T14:59:27;15.00;99.90
6740;DHT22;3407;49.882;10.920;2023-02-13T15:04:34;15.10;99.90
6740;DHT22;3407;49.882;10.920;2023-02-13T15:09:34;15.20;99.90
6740;DHT22;3407;49.882;10.920;2023-02-13T15:14:34;15.10;99.90
6740;DHT22;3407;49.882;10.920;2023-02-13T15:19:33;15.10;99.90
6740;DHT22;3407;49.882;10.920;2023-02-13T15:24:51;15.00;99.90
6740;DHT22;3407;49.882;10.920;2023-02-13T15:29:55;14.70;99.90
6740;DHT22;3407;49.882;10.920;2023-02-13T15:34:51;14.00;99.90
6740;DHT22;3407;49.882;10.920;2023-02-13T15:39:48;13.40;99.90
6740;DHT22;3407;49.882;10.920;2023-02-13T15:44:47;12.80;99.90
6740;DHT22;3407;49.882;10.920;2023-02-13T15:49:45;12.00;99.90
6740;DHT22;3407;49.882;10.920;2023-02-13T15:54:52;11.20;99.90
6740;DHT22;3407;49.882;10.920;2023-02-13T15:59:48;10.40;1.00
6740;DHT22;3407;49.882;10.920;2023-02-13T16:04:45;9.50;1.00
6740;DHT22;3407;49.882;10.920;2023-02-13T16:09:42;8.60;99.90
6740;DHT22;3407;49.882;10.920;2023-02-13T16:14:48;7.90;1.00
6740;DHT22;3407;49.882;10.920;2023-02-13T16:20:02;7.30;99.90
6740;DHT22;3407;49.882;10.920;2023-02-13T16:30:02;6.40;1.00
6740;DHT22;3407;49.882;10.920;2023-02-13T16:45:26;5.50;99.90
6740;DHT22;3407;49.882;10.920;2023-02-13T16:50:22;5.30;1.00
6740;DHT22;3407;49.882;10.920;2023-02-13T16:55:17;5.00;1.00
6740;DHT22;3407;49.882;10.920;2023-02-13T17:00:20;4.70;1.00
6740;DHT22;3407;49.882;10.920;2023-02-13T17:05:22;4.40;1.00
6740;DHT22;3407;49.882;10.920;2023-02-13T17:10:59;4.20;1.00
6740;DHT22;3407;49.882;10.920;2023-02-13T17:15:55;3.90;1.00
6740;DHT22;3407;49.882;10.920;2023-02-13T17:20:51;3.70;1.00
6740;DHT22;3407;49.882;10.920;2023-02-13T17:25:47;3.50;1.00
6740;DHT22;3407;49.882;10.920;2023-02-13T17:30:44;3.40;1.00
6740;DHT22;3407;49.882;10.920;2023-02-13T17:35:40;3.20;1.00
6740;DHT22;3407;49.882;10.920;2023-02-13T17:40:35;3.00;1.00
6740;DHT22;3407;49.882;10.920;2023-02-13T17:45:32;2.90;1.00
6740;DHT22;3407;49.882;10.920;2023-02-13T17:50:29;2.80;1.00
6740;DHT22;3407;49.882;10.920;2023-02-13T17:55:27;2.70;1.00
6740;DHT22;3407;49.882;10.920;2023-02-13T18:00:25;2.60;1.00
6740;DHT22;3407;49.882;10.920;2023-02-13T18:05:22;2.40;1.00
6740;DHT22;3407;49.882;10.920;2023-02-13T18:10:23;2.30;1.00
6740;DHT22;3407;49.882;10.920;2023-02-13T18:15:19;2.10;1.00
6740;DHT22;3407;49.882;10.920;2023-02-13T18:20:18;2.00;1.00
6740;DHT22;3407;49.882;10.920;2023-02-13T18:25:15;1.90;1.00
6740;DHT22;3407;49.882;10.920;2023-02-13T18:30:14;1.80;1.00
6740;DHT22;3407;49.882;10.920;2023-02-13T18:35:10;1.70;1.00
6740;DHT22;3407;49.882;10.920;2023-02-13T18:40:07;1.60;1.00
6740;DHT22;3407;49.882;10.920;2023-02-13T18:45:03;1.50;3.30
6740;DHT22;3407;49.882;10.920;2023-02-13T18:49:59;1.40;9.50
6740;DHT22;3407;49.882;10.920;2023-02-13T18:54:59;1.30;5.00
6740;DHT22;3407;49.882;10.920;2023-02-13T18:59:55;1.20;4.70
6740;DHT22;3407;49.882;10.920;2023-02-13T19:04:50;1.10;8.20
6740;DHT22;3407;49.882;10.920;2023-02-13T19:09:46;1.10;14.60
6740;DHT22;3407;49.882;10.920;2023-02-13T19:14:42;1.10;14.80
6740;DHT22;3407;49.882;10.920;2023-02-13T19:19:38;1.00;17.40
6740;DHT22;3407;49.882;10.920;2023-02-13T19:24:34;0.80;23.40
6740;DHT22;3407;49.882;10.920;2023-02-13T19:29:29;0.80;28.10
6740;DHT22;3407;49.882;10.920;2023-02-13T19:34:25;0.70;28.60
6740;DHT22;3407;49.882;10.920;2023-02-13T19:39:20;0.60;29.80
6740;DHT22;3407;49.882;10.920;2023-02-13T19:44:16;0.50;29.30
6740;DHT22;3407;49.882;10.920;2023-02-13T19:49:11;0.40;28.60
6740;DHT22;3407;49.882;10.920;2023-02-13T19:54:09;0.40;29.10
6740;DHT22;3407;49.882;10.920;2023-02-13T19:59:05;0.40;31.20
6740;DHT22;3407;49.882;10.920;2023-02-13T20:04:04;0.30;29.40
6740;DHT22;3407;49.882;10.920;2023-02-13T20:09:02;0.30;31.60
6740;DHT22;3407;49.882;10.920;2023-02-13T20:13:58;0.20;30.10
6740;DHT22;3407;49.882;10.920;2023-02-13T20:19:06;0.20;31.00
6740;DHT22;3407;49.882;10.920;2023-02-13T20:24:04;0.10;32.70
6740;DHT22;3407;49.882;10.920;2023-02-13T20:29:00;0.10;31.30
6740;DHT22;3407;49.882;10.920;2023-02-13T20:33:56;0.00;30.40
6740;DHT22;3407;49.882;10.920;2023-02-13T20:38:54;0.00;30.70
6740;DHT22;3407;49.882;10.920;2023-02-13T20:43:51;0.00;32.80
6740;DHT22;3407;49.882;10.920;2023-02-13T20:48:47;-0.10;32.70
6740;DHT22;3407;49.882;10.920;2023-02-13T20:53:44;-0.20;31.10
6740;DHT22;3407;49.882;10.920;2023-02-13T20:58:41;-0.20;29.90
6740;DHT22;3407;49.882;10.920;2023-02-13T21:03:37;-0.30;28.90
6740;DHT22;3407;49.882;10.920;2023-02-13T21:08:33;-0.40;30.70
6740;DHT22;3407;49.882;10.920;2023-02-13T21:13:29;-0.40;29.80
6740;DHT22;3407;49.882;10.920;2023-02-13T21:18:26;-0.40;29.80
6740;DHT22;3407;49.882;10.920;2023-02-13T21:23:22;-0.50;28.70
6740;DHT22;3407;49.882;10.920;2023-02-13T21:28:18;-0.60;29.30
6740;DHT22;3407;49.882;10.920;2023-02-13T21:33:13;-0.60;29.70
6740;DHT22;3407;49.882;10.920;2023-02-13T21:38:09;-0.60;32.20
6740;DHT22;3407;49.882;10.920;2023-02-13T21:43:04;-0.70;31.70
6740;DHT22;3407;49.882;10.920;2023-02-13T21:48:00;-0.70;30.80
6740;DHT22;3407;49.882;10.920;2023-02-13T21:52:55;-0.80;32.80
6740;DHT22;3407;49.882;10.920;2023-02-13T21:57:51;-0.80;32.40
6740;DHT22;3407;49.882;10.920;2023-02-13T22:02:46;-0.80;32.40
6740;DHT22;3407;49.882;10.920;2023-02-13T22:07:42;-0.80;33.50
6740;DHT22;3407;49.882;10.920;2023-02-13T22:12:56;-0.80;37.10
6740;DHT22;3407;49.882;10.920;2023-02-13T22:17:51;-0.80;36.70
6740;DHT22;3407;49.882;10.920;2023-02-13T22:22:47;-0.80;38.50
6740;DHT22;3407;49.882;10.920;2023-02-13T22:27:46;-0.60;44.60
6740;DHT22;3407;49.882;10.920;2023-02-13T22:32:42;-0.30;57.90
6740;DHT22;3407;49.882;10.920;2023-02-13T22:37:37;0.10;66.10
6740;DHT22;3407;49.882;10.920;2023-02-13T22:42:33;0.40;66.30
6740;DHT22;3407;49.882;10.920;2023-02-13T22:47:28;0.60;65.50
6740;DHT22;3407;49.882;10.920;2023-02-13T22:52:24;0.70;62.10
6740;DHT22;3407;49.882;10.920;2023-02-13T22:57:19;0.80;63.60
6740;DHT22;3407;49.882;10.920;2023-02-13T23:02:15;0.90;61.50
6740;DHT22;3407;49.882;10.920;2023-02-13T23:07:11;1.10;62.20
6740;DHT22;3407;49.882;10.920;2023-02-13T23:12:07;1.20;64.10
6740;DHT22;3407;49.882;10.920;2023-02-13T23:17:40;1.30;65.90
6740;DHT22;3407;49.882;10.920;2023-02-13T23:22:54;1.50;68.70
6740;DHT22;3407;49.882;10.920;2023-02-13T23:27:49;1.60;69.00
6740;DHT22;3407;49.882;10.920;2023-02-13T23:32:47;1.70;70.20
6740;DHT22;3407;49.882;10.920;2023-02-13T23:37:43;1.80;73.40
6740;DHT22;3407;49.882;10.920;2023-02-13T23:42:39;1.90;74.60
6740;DHT22;3407;49.882;10.920;2023-02-13T23:47:35;2.00;74.80
6740;DHT22;3407;49.882;10.920;2023-02-13T23:52:30;2.10;74.20
6740;DHT22;3407;49.882;10.920;2023-02-13T23:57:26;2.10;72.40
